Time;durP1;ratioP1;P1;durP2;ratioP2;P2;SDS_P1;SDS_P2;PMS_P1;PMS_P2;Temp;Humidity;BMP_temperature;BMP_pressure;BME280_temperature;BME280_humidity;BME280_pressure;Samples;Min_cycle;Max_cycle;Signal;HPM_P1;HPM_P2
2022/07/25 00:00:38;;;;;;;5.93;3.85;;;28.50;96.70;;;;;;5075602;28;20067;-82
2022/07/25 00:03:06;;;;;;;6.68;3.78;;;28.60;96.70;;;;;;5067439;28;20049;-81
2022/07/25 00:05:38;;;;;;;5.78;3.70;;;28.60;96.70;;;;;;5083886;28;20387;-81
2022/07/25 00:08:06;;;;;;;5.45;4.00;;;28.50;96.70;;;;;;5091031;28;20044;-80
2022/07/25 00:10:35;;;;;;;5.13;3.42;;;28.50;96.70;;;;;;5087076;28;20044;-81
2022/07/25 00:13:05;;;;;;;5.40;3.90;;;28.50;96.70;;;;;;5097540;28;20063;-82
2022/07/25 00:15:33;;;;;;;5.53;3.80;;;28.50;96.70;;;;;;5101949;27;20051;-81
2022/07/25 00:18:02;;;;;;;4.40;3.75;;;28.60;96.70;;;;;;5082289;27;20039;-81
2022/07/25 00:20:30;;;;;;;5.93;3.90;;;28.50;96.70;;;;;;5093465;28;20043;-82
2022/07/25 00:22:59;;;;;;;4.63;3.30;;;28.50;96.70;;;;;;5103502;27;20047;-81
2022/07/25 00:25:27;;;;;;;4.93;3.63;;;28.50;96.70;;;;;;5083700;28;20052;-81
2022/07/25 00:27:56;;;;;;;6.50;3.60;;;28.40;96.70;;;;;;5080921;28;20048;-82
2022/07/25 00:30:26;;;;;;;6.50;3.70;;;28.50;96.70;;;;;;5075418;28;20054;-81
2022/07/25 00:32:54;;;;;;;5.40;3.63;;;28.40;96.70;;;;;;5085707;27;20075;-81
2022/07/25 00:35:23;;;;;;;4.90;3.53;;;28.30;96.70;;;;;;5075714;28;20104;-81
2022/07/25 00:37:51;;;;;;;4.78;3.45;;;28.30;96.70;;;;;;5097197;27;20043;-81
2022/07/25 00:40:20;;;;;;;5.00;3.70;;;28.30;96.70;;;;;;5102807;27;20032;-81
2022/07/25 00:42:48;;;;;;;6.05;3.80;;;28.20;96.70;;;;;;5095701;27;20048;-81
2022/07/25 00:45:17;;;;;;;6.18;3.80;;;28.20;96.70;;;;;;5069985;27;20746;-82
2022/07/25 00:47:47;;;;;;;4.38;3.70;;;28.20;96.70;;;;;;5104780;27;20062;-80
2022/07/25 00:50:16;;;;;;;7.72;4.03;;;28.10;96.70;;;;;;5102013;27;20039;-82
2022/07/25 00:52:45;;;;;;;5.28;3.35;;;28.10;96.70;;;;;;5085525;28;20052;-81
2022/07/25 00:55:13;;;;;;;5.65;3.40;;;28.10;96.70;;;;;;5084932;27;20111;-80
2022/07/25 00:57:42;;;;;;;6.95;3.65;;;28.10;96.70;;;;;;5086026;27;20393;-82
2022/07/25 01:00:14;;;;;;;7.53;4.03;;;28.10;96.70;;;;;;5104126;27;20039;-81
2022/07/25 01:02:42;;;;;;;5.47;3.83;;;28.10;96.70;;;;;;5069223;28;20048;-81
2022/07/25 01:05:13;;;;;;;3.42;3.13;;;28.10;96.70;;;;;;5097908;27;20068;-82
2022/07/25 01:07:41;;;;;;;4.90;3.92;;;28.10;96.70;;;;;;5085839;28;20051;-80
2022/07/25 01:10:10;;;;;;;6.03;3.97;;;27.90;96.70;;;;;;5085568;27;20092;-81
2022/07/25 01:12:49;;;;;;;4.78;3.70;;;27.90;96.70;;;;;;5078031;28;20638;-81
2022/07/25 01:15:18;;;;;;;6.88;3.83;;;27.90;96.70;;;;;;5084248;28;20079;-81
2022/07/25 01:17:47;;;;;;;7.22;3.80;;;27.90;96.70;;;;;;5086057;28;20043;-80
2022/07/25 01:20:17;;;;;;;6.32;4.13;;;28.00;96.70;;;;;;5083080;27;20151;-80
2022/07/25 01:22:46;;;;;;;6.90;3.97;;;28.00;96.70;;;;;;5070705;27;20855;-81
2022/07/25 01:25:16;;;;;;;4.90;3.70;;;28.00;96.70;;;;;;5087442;28;20043;-80
2022/07/25 01:27:45;;;;;;;6.13;3.83;;;28.00;96.70;;;;;;5080212;28;20408;-81
2022/07/25 01:30:22;;;;;;;4.93;3.53;;;27.90;96.70;;;;;;5107623;27;20055;-81
2022/07/25 01:32:51;;;;;;;6.70;3.80;;;27.90;96.70;;;;;;5089748;27;20043;-80
2022/07/25 01:35:21;;;;;;;7.57;3.78;;;27.80;96.70;;;;;;5103281;27;20047;-80
2022/07/25 01:37:50;;;;;;;4.95;3.85;;;27.70;96.70;;;;;;5061892;27;20159;-81
2022/07/25 01:40:18;;;;;;;6.22;4.10;;;27.70;96.70;;;;;;5081905;28;20047;-81
2022/07/25 01:42:47;;;;;;;4.60;3.90;;;27.60;96.70;;;;;;5068367;27;20154;-80
2022/07/25 01:45:15;;;;;;;5.32;3.90;;;27.60;96.70;;;;;;5079929;27;20043;-81
2022/07/25 01:47:44;;;;;;;5.68;3.47;;;27.70;96.70;;;;;;5098701;28;20048;-80
2022/07/25 01:50:12;;;;;;;5.95;3.72;;;27.60;96.70;;;;;;5098129;27;20044;-80
2022/07/25 01:52:43;;;;;;;5.65;3.67;;;27.60;96.70;;;;;;5076578;28;20047;-80
2022/07/25 01:55:12;;;;;;;4.82;3.42;;;27.60;96.70;;;;;;5081695;28;20239;-81
2022/07/25 01:57:40;;;;;;;4.43;3.63;;;27.50;96.70;;;;;;5101004;27;20393;-80
2022/07/25 02:00:17;;;;;;;7.82;4.80;;;27.50;96.70;;;;;;5075135;28;20055;-80
2022/07/25 02:02:46;;;;;;;5.70;4.63;;;27.60;96.70;;;;;;5099784;27;20575;-79
2022/07/25 02:05:15;;;;;;;6.13;4.90;;;27.30;96.70;;;;;;5078042;28;20090;-79
2022/07/25 02:07:45;;;;;;;6.15;4.55;;;27.30;96.70;;;;;;5075183;28;20044;-80
2022/07/25 02:10:13;;;;;;;7.72;5.20;;;27.30;96.70;;;;;;5084413;28;20052;-81
2022/07/25 02:12:41;;;;;;;6.90;5.00;;;27.30;96.70;;;;;;5080500;28;20054;-81
2022/07/25 02:15:11;;;;;;;5.68;4.95;;;27.20;96.70;;;;;;5072377;28;20047;-81
2022/07/25 02:17:39;;;;;;;6.10;4.70;;;27.20;96.70;;;;;;5061393;28;20040;-80
2022/07/25 02:20:09;;;;;;;5.63;5.05;;;27.20;96.70;;;;;;5078809;28;20054;-80
2022/07/25 02:22:37;;;;;;;6.47;4.63;;;27.20;96.70;;;;;;5062606;28;20055;-80
2022/07/25 02:25:07;;;;;;;5.90;4.55;;;27.20;96.70;;;;;;5070377;28;20051;-80
2022/07/25 02:27:35;;;;;;;5.45;3.90;;;27.30;96.70;;;;;;5074538;28;20059;-80
2022/07/25 02:30:04;;;;;;;4.85;4.10;;;27.20;96.70;;;;;;5069330;28;20550;-80
2022/07/25 02:32:32;;;;;;;5.82;4.63;;;27.20;96.70;;;;;;5082931;28;20044;-80
2022/07/25 02:35:00;;;;;;;5.88;4.22;;;27.20;96.70;;;;;;5076737;28;20041;-80
2022/07/25 02:37:28;;;;;;;5.53;4.00;;;27.20;96.70;;;;;;5083414;28;20067;-80
2022/07/25 02:39:56;;;;;;;8.52;4.38;;;27.10;96.70;;;;;;5065995;28;20520;-79
2022/07/25 02:42:25;;;;;;;5.88;4.18;;;27.10;96.70;;;;;;5075808;28;20062;-81
2022/07/25 02:44:53;;;;;;;5.15;4.15;;;27.00;96.70;;;;;;5075331;28;20105;-81
2022/07/25 02:47:21;;;;;;;6.50;4.28;;;27.10;96.70;;;;;;5084555;28;20035;-81
2022/07/25 02:49:49;;;;;;;7.22;4.10;;;27.00;96.70;;;;;;5062442;28;20066;-80
2022/07/25 02:52:17;;;;;;;5.55;4.00;;;27.10;96.70;;;;;;5077428;28;20097;-80
2022/07/25 02:54:44;;;;;;;5.22;4.70;;;27.20;96.70;;;;;;5058339;28;20048;-79
2022/07/25 02:57:12;;;;;;;7.32;4.50;;;27.20;96.70;;;;;;5072411;28;20050;-80
2022/07/25 02:59:42;;;;;;;6.72;4.90;;;27.10;96.70;;;;;;5076924;28;20163;-80
2022/07/25 03:02:09;;;;;;;7.70;4.75;;;27.10;96.70;;;;;;5061233;28;20059;-80
2022/07/25 03:04:37;;;;;;;4.68;4.18;;;27.20;96.70;;;;;;5081484;28;20151;-80
2022/07/25 03:07:06;;;;;;;5.53;4.40;;;27.10;96.70;;;;;;5089893;28;20058;-80
2022/07/25 03:09:34;;;;;;;7.78;4.85;;;27.10;96.70;;;;;;5079696;28;20525;-80
2022/07/25 03:12:03;;;;;;;7.07;4.30;;;27.10;96.70;;;;;;5063166;28;20051;-81
2022/07/25 03:14:31;;;;;;;7.65;5.00;;;27.10;96.70;;;;;;5083472;28;20051;-81
2022/07/25 03:17:00;;;;;;;5.20;4.70;;;27.10;96.70;;;;;;5083669;28;20127;-81
2022/07/25 03:19:28;;;;;;;7.07;4.43;;;27.10;96.70;;;;;;5080459;28;20192;-80
2022/07/25 03:21:56;;;;;;;5.28;4.53;;;27.10;96.70;;;;;;5089222;28;20125;-81
2022/07/25 03:24:25;;;;;;;6.30;4.22;;;27.00;96.70;;;;;;5081474;28;20043;-81
2022/07/25 03:26:55;;;;;;;4.63;4.22;;;26.90;96.70;;;;;;5079669;28;20043;-81
2022/07/25 03:29:22;;;;;;;8.32;4.35;;;26.80;96.70;;;;;;5099654;28;20925;-80
2022/07/25 03:31:50;;;;;;;5.28;3.88;;;26.80;96.70;;;;;;5087601;28;20032;-80
2022/07/25 03:34:20;;;;;;;5.60;3.78;;;26.80;96.70;;;;;;5089146;28;20052;-81
2022/07/25 03:36:48;;;;;;;5.60;4.38;;;26.80;96.70;;;;;;5075813;28;20052;-80
2022/07/25 03:39:16;;;;;;;5.97;4.20;;;26.70;96.70;;;;;;5099613;28;20038;-80
2022/07/25 03:41:44;;;;;;;6.10;4.28;;;26.70;96.70;;;;;;5076913;28;20153;-80
2022/07/25 03:44:12;;;;;;;5.78;4.13;;;26.60;96.70;;;;;;5060704;28;20044;-80
2022/07/25 03:46:39;;;;;;;6.32;4.13;;;26.70;96.70;;;;;;5075894;28;21073;-79
2022/07/25 03:49:07;;;;;;;6.18;4.18;;;26.80;96.70;;;;;;5086428;28;20054;-79
2022/07/25 03:51:36;;;;;;;6.00;3.70;;;26.80;96.70;;;;;;5103810;28;20044;-80
2022/07/25 03:54:05;;;;;;;6.60;4.30;;;26.80;96.70;;;;;;5078228;28;20048;-79
2022/07/25 03:56:37;;;;;;;5.95;4.25;;;26.80;96.70;;;;;;5078835;28;20155;-80
2022/07/25 03:59:12;;;;;;;5.63;3.85;;;26.80;96.70;;;;;;5086278;27;20170;-80
2022/07/25 04:01:40;;;;;;;7.78;3.90;;;26.70;96.70;;;;;;5078349;28;20036;-80
2022/07/25 04:04:09;;;;;;;4.68;4.03;;;26.70;96.70;;;;;;5109315;27;20116;-81
2022/07/25 04:06:39;;;;;;;5.35;4.43;;;26.70;96.70;;;;;;5064164;28;20056;-81
2022/07/25 04:09:09;;;;;;;5.97;4.70;;;26.70;96.70;;;;;;5095346;27;20035;-79
2022/07/25 04:11:37;;;;;;;6.13;4.25;;;26.80;96.70;;;;;;5097431;27;20124;-79
2022/07/25 04:14:05;;;;;;;5.53;4.22;;;26.80;96.70;;;;;;5086773;28;20043;-79
2022/07/25 04:16:33;;;;;;;6.47;4.10;;;26.80;96.70;;;;;;5079839;27;20031;-80
2022/07/25 04:19:04;;;;;;;7.22;4.70;;;26.70;96.70;;;;;;5085595;28;20465;-80
2022/07/25 04:21:33;;;;;;;7.05;4.13;;;26.70;96.70;;;;;;5082923;28;20060;-80
2022/07/25 04:24:02;;;;;;;7.13;4.22;;;26.60;96.70;;;;;;5090634;28;20512;-81
2022/07/25 04:26:30;;;;;;;6.05;4.55;;;26.60;96.70;;;;;;5089332;28;20040;-81
2022/07/25 04:29:02;;;;;;;9.15;4.43;;;26.70;96.70;;;;;;5094127;28;20519;-82
2022/07/25 04:31:31;;;;;;;4.55;3.97;;;26.70;96.70;;;;;;5091279;27;20063;-82
2022/07/25 04:33:59;;;;;;;6.90;4.40;;;26.60;96.70;;;;;;5094867;28;20515;-81
2022/07/25 04:36:27;;;;;;;5.97;4.43;;;26.70;96.70;;;;;;5084097;27;20043;-81
2022/07/25 04:38:54;;;;;;;5.68;4.00;;;26.50;96.70;;;;;;5072247;28;20163;-82
2022/07/25 04:41:24;;;;;;;4.90;4.13;;;26.60;96.70;;;;;;5108613;27;20069;-81
2022/07/25 04:43:52;;;;;;;6.00;4.32;;;26.60;96.70;;;;;;5115597;27;20050;-81
2022/07/25 04:46:20;;;;;;;7.07;4.25;;;26.60;96.70;;;;;;5081215;28;20048;-82
2022/07/25 04:48:49;;;;;;;4.78;4.05;;;26.70;96.70;;;;;;5097873;27;20041;-82
2022/07/25 04:51:17;;;;;;;5.50;4.60;;;26.60;96.70;;;;;;5090284;27;20100;-81
2022/07/25 04:53:45;;;;;;;6.95;4.47;;;26.60;96.70;;;;;;5085517;28;20498;-81
2022/07/25 04:56:13;;;;;;;5.70;4.53;;;26.60;96.70;;;;;;5080470;28;20070;-82
2022/07/25 04:58:43;;;;;;;4.80;4.30;;;26.60;96.70;;;;;;5088040;28;20044;-82
2022/07/25 05:01:10;;;;;;;8.38;5.10;;;26.80;96.70;;;;;;5084718;27;20130;-82
2022/07/25 05:03:38;;;;;;;7.05;4.88;;;26.80;96.70;;;;;;5086521;27;20485;-81
2022/07/25 05:06:07;;;;;;;6.50;4.70;;;26.80;96.70;;;;;;5095781;28;20040;-82
2022/07/25 05:08:34;;;;;;;7.28;4.53;;;26.80;96.70;;;;;;5066563;28;20134;-82
2022/07/25 05:11:02;;;;;;;5.85;4.28;;;26.90;96.70;;;;;;5067855;28;20044;-82
2022/07/25 05:13:30;;;;;;;7.45;5.05;;;26.80;96.70;;;;;;5079266;28;20060;-81
2022/07/25 05:16:00;;;;;;;5.38;4.63;;;26.70;96.70;;;;;;5051455;28;20546;-81
2022/07/25 05:18:28;;;;;;;7.85;4.70;;;26.80;96.70;;;;;;5066365;28;20491;-81
2022/07/25 05:20:56;;;;;;;8.95;5.32;;;26.80;96.70;;;;;;5058400;28;20048;-81
2022/07/25 05:23:23;;;;;;;8.32;4.82;;;26.70;96.70;;;;;;5063017;28;20052;-81
2022/07/25 05:25:51;;;;;;;6.85;4.40;;;26.70;96.70;;;;;;5085244;28;20074;-82
2022/07/25 05:28:19;;;;;;;6.93;4.97;;;26.60;96.70;;;;;;5071355;28;20048;-82
2022/07/25 05:30:47;;;;;;;5.50;4.25;;;26.70;96.70;;;;;;5085987;28;20610;-81
2022/07/25 05:33:16;;;;;;;6.20;4.80;;;26.80;96.70;;;;;;5061854;28;20540;-82
2022/07/25 05:35:44;;;;;;;8.13;5.22;;;26.90;96.70;;;;;;5053191;28;20067;-81
2022/07/25 05:38:11;;;;;;;5.45;4.80;;;26.90;96.70;;;;;;5060899;28;20114;-81
2022/07/25 05:40:39;;;;;;;9.73;4.90;;;26.80;96.70;;;;;;5079780;28;20044;-81
2022/07/25 05:43:07;;;;;;;8.90;4.80;;;26.80;96.70;;;;;;5059395;28;20107;-82
2022/07/25 05:45:35;;;;;;;5.65;4.80;;;26.80;96.70;;;;;;5064654;28;20041;-82
2022/07/25 05:48:03;;;;;;;8.73;4.93;;;26.80;96.70;;;;;;5055242;28;20070;-81
2022/07/25 05:50:32;;;;;;;7.32;4.97;;;26.80;96.70;;;;;;5076039;28;20072;-81
2022/07/25 05:53:00;;;;;;;7.80;5.18;;;26.80;96.70;;;;;;5066233;28;20501;-82
2022/07/25 05:55:28;;;;;;;7.03;5.07;;;26.90;96.70;;;;;;5059579;28;20044;-81
2022/07/25 05:57:56;;;;;;;8.27;4.70;;;27.10;96.70;;;;;;5064751;28;20705;-81
2022/07/25 06:00:24;;;;;;;6.85;4.88;;;27.20;96.70;;;;;;5071599;28;20075;-81
2022/07/25 06:02:53;;;;;;;11.85;4.78;;;27.30;96.70;;;;;;5049513;28;20064;-82
2022/07/25 06:05:21;;;;;;;8.75;5.20;;;27.30;96.70;;;;;;5071416;28;20048;-81
2022/07/25 06:07:50;;;;;;;8.00;5.22;;;27.40;96.70;;;;;;5070712;28;20048;-82
2022/07/25 06:10:18;;;;;;;7.18;4.95;;;27.30;96.70;;;;;;5070639;28;20044;-81
2022/07/25 06:12:46;;;;;;;6.15;5.05;;;27.30;96.70;;;;;;5047769;28;20139;-81
2022/07/25 06:15:13;;;;;;;8.38;5.72;;;27.50;96.70;;;;;;5052515;28;20049;-81
2022/07/25 06:17:53;;;;;;;8.15;5.10;;;27.60;96.70;;;;;;5065713;28;20498;-82
2022/07/25 06:20:22;;;;;;;10.18;5.40;;;27.60;96.70;;;;;;5072494;28;20123;-82
2022/07/25 06:22:52;;;;;;;8.32;5.22;;;27.60;96.70;;;;;;5061945;28;20152;-82
2022/07/25 06:25:20;;;;;;;10.25;5.63;;;27.60;96.70;;;;;;5072952;28;20044;-81
2022/07/25 06:27:48;;;;;;;7.72;5.68;;;27.70;96.70;;;;;;5062359;28;20044;-82
2022/07/25 06:30:16;;;;;;;10.05;5.60;;;27.70;96.70;;;;;;5073147;28;20044;-82
2022/07/25 06:32:48;;;;;;;6.20;5.22;;;27.70;96.70;;;;;;5069035;28;20048;-82
2022/07/25 06:35:16;;;;;;;9.40;5.20;;;27.70;96.70;;;;;;5075725;28;20044;-82
2022/07/25 06:37:45;;;;;;;8.98;5.53;;;27.80;96.70;;;;;;5061483;28;20041;-82
2022/07/25 06:40:15;;;;;;;8.38;5.00;;;27.80;96.70;;;;;;5072685;28;20060;-81
2022/07/25 06:42:44;;;;;;;7.40;4.75;;;27.90;96.70;;;;;;5061632;28;20098;-81
2022/07/25 06:45:14;;;;;;;10.63;4.80;;;28.00;96.70;;;;;;5060018;28;20556;-82
2022/07/25 06:47:43;;;;;;;10.82;4.90;;;28.10;96.70;;;;;;5074154;28;20406;-82
2022/07/25 06:50:14;;;;;;;10.23;5.20;;;28.10;96.70;;;;;;5056805;28;20051;-81
2022/07/25 06:52:42;;;;;;;9.05;5.07;;;28.10;96.70;;;;;;5062281;28;21132;-82
2022/07/25 06:55:12;;;;;;;10.98;4.88;;;28.10;96.70;;;;;;5072180;28;20036;-81
2022/07/25 06:57:42;;;;;;;8.98;5.63;;;28.10;96.70;;;;;;5075551;28;20040;-82
2022/07/25 07:00:12;;;;;;;8.00;5.43;;;28.20;96.70;;;;;;5058465;28;20047;-82
2022/07/25 07:02:51;;;;;;;7.47;5.10;;;28.40;96.70;;;;;;5062627;28;20090;-82
2022/07/25 07:05:20;;;;;;;9.60;5.68;;;28.40;96.70;;;;;;5062604;28;20684;-83
2022/07/25 07:07:49;;;;;;;10.05;4.50;;;28.40;96.70;;;;;;5066267;28;20052;-83
2022/07/25 07:10:17;;;;;;;8.52;5.55;;;28.40;96.70;;;;;;5086824;28;20048;-82
2022/07/25 07:12:48;;;;;;;10.85;5.13;;;28.40;96.70;;;;;;5084513;28;20063;-82
2022/07/25 07:15:16;;;;;;;8.32;5.50;;;28.50;96.70;;;;;;5076982;28;20066;-82
2022/07/25 07:17:45;;;;;;;10.00;5.18;;;28.60;96.70;;;;;;5083609;28;20518;-83
2022/07/25 07:20:13;;;;;;;7.38;5.28;;;28.70;96.70;;;;;;5083980;28;20097;-83
2022/07/25 07:22:45;;;;;;;8.60;5.45;;;28.70;96.70;;;;;;5085797;28;20146;-82
2022/07/25 07:25:15;;;;;;;7.97;5.72;;;28.60;96.70;;;;;;5089014;28;20059;-82
2022/07/25 07:27:44;;;;;;;8.20;5.47;;;28.60;96.70;;;;;;5082503;28;20047;-83
2022/07/25 07:30:13;;;;;;;7.72;5.38;;;28.70;96.70;;;;;;5089772;28;20051;-84
2022/07/25 07:32:46;;;;;;;6.95;5.55;;;28.80;96.70;;;;;;5083055;28;20048;-82
2022/07/25 07:35:15;;;;;;;10.38;6.47;;;28.90;96.70;;;;;;5075528;28;20051;-82
2022/07/25 07:37:44;;;;;;;9.05;6.53;;;28.90;96.70;;;;;;5089877;28;20332;-82
2022/07/25 07:40:13;;;;;;;8.38;5.68;;;28.90;96.70;;;;;;5088080;28;20044;-82
2022/07/25 07:42:47;;;;;;;7.35;6.10;;;28.90;96.70;;;;;;5079313;28;20420;-81
2022/07/25 07:45:18;;;;;;;11.00;7.05;;;29.00;96.70;;;;;;5088622;28;20036;-84
2022/07/25 07:47:47;;;;;;;13.30;6.20;;;29.10;96.70;;;;;;5083251;28;20071;-81
2022/07/25 07:50:17;;;;;;;8.20;5.78;;;29.10;96.70;;;;;;5096379;28;20040;-82
2022/07/25 07:52:45;;;;;;;8.57;5.70;;;29.20;96.70;;;;;;5090628;28;20096;-84
2022/07/25 07:58:01;;;;;;;7.65;5.80;;;29.40;96.70;;;;;;5087347;28;20045;-84
2022/07/25 08:00:35;;;;;;;9.35;6.82;;;29.50;96.70;;;;;;5097648;28;20444;-84
2022/07/25 08:03:05;;;;;;;8.13;6.13;;;29.60;96.70;;;;;;5092275;28;20101;-84
2022/07/25 08:05:37;;;;;;;7.03;5.97;;;29.60;96.70;;;;;;5090494;28;20052;-84
2022/07/25 08:08:07;;;;;;;8.85;6.53;;;29.70;96.70;;;;;;5109115;27;20504;-84
2022/07/25 08:10:38;;;;;;;9.80;5.93;;;29.70;96.70;;;;;;5100124;28;20075;-83
2022/07/25 08:13:14;;;;;;;6.90;6.10;;;29.80;96.70;;;;;;5071438;28;20044;-84
2022/07/25 08:15:45;;;;;;;7.45;5.82;;;29.80;96.70;;;;;;5096982;27;20054;-84
2022/07/25 08:18:14;;;;;;;9.18;6.20;;;29.90;96.70;;;;;;5088618;28;20074;-83
2022/07/25 08:20:45;;;;;;;7.63;5.85;;;29.80;96.70;;;;;;5093431;28;20108;-83
2022/07/25 08:23:14;;;;;;;8.65;6.40;;;29.80;96.70;;;;;;5088841;28;20043;-81
2022/07/25 08:25:43;;;;;;;10.18;5.93;;;29.90;96.70;;;;;;5100142;27;20134;-79
2022/07/25 08:28:11;;;;;;;10.15;6.07;;;30.00;96.70;;;;;;5087601;27;20035;-78
2022/07/25 08:30:40;;;;;;;9.77;6.22;;;30.00;96.70;;;;;;5076403;28;20473;-79
2022/07/25 08:33:12;;;;;;;10.95;6.55;;;30.10;96.70;;;;;;5110020;27;20931;-80
2022/07/25 08:35:44;;;;;;;8.32;6.55;;;30.20;96.70;;;;;;5061809;28;20052;-80
2022/07/25 08:38:12;;;;;;;11.13;5.90;;;30.20;96.70;;;;;;5101394;27;20043;-78
2022/07/25 08:40:41;;;;;;;8.80;6.40;;;30.30;96.70;;;;;;5066694;27;20066;-80
2022/07/25 08:43:11;;;;;;;8.82;6.55;;;30.40;96.70;;;;;;5103816;27;20067;-82
2022/07/25 08:45:42;;;;;;;11.25;6.68;;;30.30;96.70;;;;;;5064267;27;20089;-76
2022/07/25 08:48:13;;;;;;;11.20;6.40;;;30.20;96.70;;;;;;5093334;27;20071;-76
2022/07/25 08:50:42;;;;;;;10.80;6.70;;;30.30;96.70;;;;;;5083493;28;20433;-80
2022/07/25 08:53:12;;;;;;;10.70;7.15;;;30.30;96.70;;;;;;5072075;28;20043;-79
2022/07/25 08:56:00;;;;;;;13.85;7.15;;;30.30;96.70;;;;;;5091449;27;20045;-79
2022/07/25 08:58:36;;;;;;;10.57;6.97;;;30.30;96.70;;;;;;5099519;27;20089;-80
2022/07/25 09:01:06;;;;;;;11.35;6.78;;;30.40;96.70;;;;;;5085351;27;20059;-79
2022/07/25 09:03:35;;;;;;;9.63;6.28;;;30.50;96.70;;;;;;5079007;28;20044;-82
2022/07/25 09:06:15;;;;;;;8.00;6.57;;;30.60;96.70;;;;;;5088234;27;20043;-80
2022/07/25 09:08:51;;;;;;;8.82;7.22;;;30.60;96.70;;;;;;5052443;28;20048;-81
2022/07/25 09:11:26;;;;;;;;;;;30.80;96.70;;;;;;5068651;28;20041;-79
2022/07/25 09:13:59;;;;;;;9.43;7.22;;;30.80;96.70;;;;;;5060630;28;19952;-79
2022/07/25 09:16:32;;;;;;;6.97;6.38;;;30.90;96.70;;;;;;5061922;28;20056;-78
2022/07/25 09:19:13;;;;;;;10.48;6.60;;;30.90;96.70;;;;;;5061684;28;20479;-80
2022/07/25 09:21:43;;;;;;;8.77;6.78;;;30.90;96.70;;;;;;5072505;28;20056;-79
2022/07/25 09:24:14;;;;;;;9.30;6.75;;;30.90;96.70;;;;;;5051474;28;20055;-80
2022/07/25 09:26:44;;;;;;;10.18;7.18;;;30.90;96.70;;;;;;5073382;28;20063;-79
2022/07/25 09:29:20;;;;;;;9.43;6.72;;;31.00;96.70;;;;;;5058482;28;20051;-80
2022/07/25 09:31:48;;;;;;;;;;;31.10;96.70;;;;;;5068229;28;20441;-80
2022/07/25 09:34:30;;;;;;;12.45;6.97;;;31.20;96.70;;;;;;5057534;28;20377;-80
2022/07/25 09:36:59;;;;;;;9.23;6.93;;;31.20;96.70;;;;;;5064010;28;20045;-81
2022/07/25 09:39:35;;;;;;;10.90;7.15;;;31.20;96.70;;;;;;5069566;28;20047;-81
2022/07/25 09:42:19;;;;;;;7.65;7.00;;;31.30;96.70;;;;;;5077087;28;20048;-87
2022/07/25 09:45:02;;;;;;;9.90;7.07;;;31.30;96.70;;;;;;5068469;28;20589;-80
2022/07/25 09:47:31;;;;;;;10.05;7.22;;;31.30;96.70;;;;;;5047751;28;20443;-80
2022/07/25 09:50:01;;;;;;;11.35;6.85;;;31.50;96.70;;;;;;5070015;28;20573;-80
2022/07/25 09:52:30;;;;;;;8.13;6.43;;;31.60;96.70;;;;;;5055426;28;20045;-79
2022/07/25 09:55:01;;;;;;;10.55;7.20;;;31.60;96.70;;;;;;5066927;28;20098;-80
2022/07/25 09:57:30;;;;;;;9.95;6.65;;;31.80;96.70;;;;;;5054187;28;20063;-82
2022/07/25 09:59:59;;;;;;;7.75;6.82;;;31.90;96.70;;;;;;5065763;28;20131;-81
2022/07/25 10:02:39;;;;;;;9.77;7.40;;;31.90;96.70;;;;;;5058428;28;20106;-81
2022/07/25 10:05:14;;;;;;;11.38;7.75;;;32.00;96.70;;;;;;5058827;28;20079;-81
2022/07/25 10:07:45;;;;;;;9.07;6.97;;;32.00;96.70;;;;;;5056413;28;20361;-81
2022/07/25 10:10:29;;;;;;;10.18;7.30;;;32.00;96.70;;;;;;5077641;28;20482;-81
2022/07/25 10:13:03;;;;;;;8.48;7.57;;;32.10;96.70;;;;;;5081088;28;20074;-80
2022/07/25 10:15:45;;;;;;;11.32;7.22;;;32.20;96.70;;;;;;5075305;28;20062;-81
2022/07/25 10:18:15;;;;;;;9.23;7.22;;;32.30;96.70;;;;;;5077435;28;20143;-82
2022/07/25 10:20:46;;;;;;;9.68;7.32;;;32.30;96.70;;;;;;5078042;28;20436;-80
2022/07/25 10:23:20;;;;;;;9.73;6.85;;;32.40;96.70;;;;;;5071672;28;20476;-81
2022/07/25 10:26:03;;;;;;;9.93;7.55;;;32.50;96.70;;;;;;5086789;28;20081;-81
2022/07/25 10:28:40;;;;;;;8.63;6.78;;;32.50;96.70;;;;;;5076004;28;20041;-81
2022/07/25 10:31:21;;;;;;;10.63;8.18;;;32.60;96.70;;;;;;5079705;28;20090;-80
2022/07/25 10:33:51;;;;;;;9.82;7.10;;;32.70;96.70;;;;;;5084485;28;20044;-81
2022/07/25 10:36:23;;;;;;;12.93;7.05;;;32.80;96.70;;;;;;5057446;28;20044;-81
2022/07/25 10:38:56;;;;;;;8.50;7.10;;;33.00;96.70;;;;;;5062706;28;20063;-83
2022/07/25 10:41:25;;;;;;;10.85;7.38;;;32.90;96.70;;;;;;5071275;28;20043;-81
2022/07/25 10:43:59;;;;;;;9.63;7.40;;;32.90;96.70;;;;;;5081594;28;20052;-81
2022/07/25 10:46:29;;;;;;;11.55;7.35;;;33.10;96.70;;;;;;5062552;28;20044;-79
2022/07/25 10:49:00;;;;;;;12.40;7.88;;;33.20;96.70;;;;;;5079657;28;20138;-79
2022/07/25 10:51:32;;;;;;;9.35;7.63;;;33.30;96.70;;;;;;5082001;28;20098;-79
2022/07/25 10:54:15;;;;;;;10.10;7.60;;;33.40;96.70;;;;;;5083005;28;20434;-79
2022/07/25 10:56:52;;;;;;;9.07;7.15;;;33.30;96.70;;;;;;5060960;28;20052;-79
2022/07/25 10:59:32;;;;;;;12.13;7.55;;;33.40;96.70;;;;;;5077335;28;20047;-80
2022/07/25 11:02:02;;;;;;;8.98;7.20;;;33.40;96.70;;;;;;5067072;28;20089;-80
2022/07/25 11:04:32;;;;;;;7.57;6.85;;;33.60;96.70;;;;;;5083754;28;20052;-81
2022/07/25 11:07:12;;;;;;;10.60;7.40;;;33.80;96.70;;;;;;5089670;27;20058;-82
2022/07/25 11:09:55;;;;;;;10.15;7.32;;;33.80;96.70;;;;;;5104556;28;20051;-82
2022/07/25 11:12:25;;;;;;;10.10;7.22;;;33.80;96.70;;;;;;5088299;28;20052;-83
2022/07/25 11:15:00;;;;;;;9.75;7.30;;;33.90;96.70;;;;;;5087881;28;20050;-83
2022/07/25 11:17:48;;;;;;;9.48;7.55;;;33.90;96.70;;;;;;5077736;28;20044;-83
2022/07/25 11:20:20;;;;;;;8.80;6.97;;;33.90;96.70;;;;;;5080734;28;20044;-81
2022/07/25 11:22:55;;;;;;;9.00;6.90;;;34.10;96.70;;;;;;5085540;28;20044;-82
2022/07/25 11:25:24;;;;;;;12.52;7.57;;;34.10;96.70;;;;;;5093380;28;20104;-82
2022/07/25 11:27:57;;;;;;;7.97;6.65;;;34.10;96.70;;;;;;5085472;28;20062;-82
2022/07/25 11:30:28;;;;;;;7.47;6.65;;;34.30;96.70;;;;;;5089554;28;20413;-82
2022/07/25 11:33:02;;;;;;;11.75;6.78;;;34.30;96.70;;;;;;5097853;28;20108;-84
2022/07/25 11:35:32;;;;;;;10.57;7.35;;;34.30;96.70;;;;;;5106895;28;20075;-83
2022/07/25 11:38:03;;;;;;;7.95;7.10;;;34.20;96.70;;;;;;5080126;28;20048;-82
2022/07/25 11:40:41;;;;;;;7.15;5.97;;;34.30;96.70;;;;;;5096662;28;20073;-82
2022/07/25 11:43:19;;;;;;;8.25;6.63;;;34.40;96.70;;;;;;5107248;28;20047;-82
2022/07/25 11:45:56;;;;;;;8.05;6.13;;;34.50;96.70;;;;;;5093789;28;20808;-84
2022/07/25 11:48:33;;;;;;;8.50;6.20;;;34.50;96.70;;;;;;5060225;28;20675;-85
2022/07/25 11:51:14;;;;;;;7.10;6.40;;;34.60;96.70;;;;;;5063513;28;20522;-84
2022/07/25 11:53:49;;;;;;;7.95;6.50;;;34.60;96.70;;;;;;5039542;28;20048;-83
2022/07/25 11:56:18;;;;;;;8.40;6.50;;;34.70;96.70;;;;;;5055363;28;20532;-83
2022/07/25 11:59:08;;;;;;;7.82;6.60;;;34.50;96.70;;;;;;5070267;28;20663;-84
2022/07/25 12:01:40;;;;;;;9.85;6.75;;;34.60;96.70;;;;;;5053234;28;20048;-84
2022/07/25 12:04:11;;;;;;;9.15;6.68;;;34.70;96.70;;;;;;5052655;28;21015;-84
2022/07/25 12:06:40;;;;;;;19.40;7.85;;;34.70;96.70;;;;;;5055416;28;20122;-83
2022/07/25 12:09:15;;;;;;;19.10;7.95;;;34.50;96.70;;;;;;5031734;28;20068;-83
2022/07/25 12:11:47;;;;;;;13.07;6.95;;;34.60;96.70;;;;;;5055312;28;20049;-83
2022/07/25 12:14:16;;;;;;;8.88;6.45;;;34.80;96.70;;;;;;5055429;28;20415;-83
2022/07/25 12:16:44;;;;;;;12.77;6.57;;;34.60;96.70;;;;;;5069453;28;20044;-83
2022/07/25 12:19:19;;;;;;;6.93;6.25;;;34.60;96.70;;;;;;5055441;28;20036;-83
2022/07/25 12:21:48;;;;;;;7.35;6.00;;;34.50;96.70;;;;;;5068881;28;20555;-85
2022/07/25 12:24:17;;;;;;;8.88;6.45;;;34.50;96.70;;;;;;5055394;28;20581;-83
2022/07/25 12:26:45;;;;;;;11.27;6.75;;;34.40;96.70;;;;;;5059525;28;20067;-82
2022/07/25 12:29:14;;;;;;;8.38;6.95;;;34.40;96.70;;;;;;5078219;28;20079;-83
2022/07/25 12:31:42;;;;;;;11.48;6.80;;;34.40;96.70;;;;;;5057180;28;20134;-84
2022/07/25 12:34:10;;;;;;;9.88;6.85;;;34.50;96.70;;;;;;5067911;28;20082;-82
2022/07/25 12:36:43;;;;;;;9.30;7.00;;;34.60;96.70;;;;;;5048712;28;20076;-82
2022/07/25 12:39:12;;;;;;;10.23;6.90;;;34.60;96.70;;;;;;5099352;27;20048;-82
2022/07/25 12:41:42;;;;;;;11.77;7.78;;;34.60;96.70;;;;;;5093236;28;20116;-82
2022/07/25 12:44:10;;;;;;;8.27;7.18;;;34.60;96.70;;;;;;5094747;28;20378;-83
2022/07/25 12:46:40;;;;;;;9.30;7.25;;;34.80;96.70;;;;;;5111047;27;21004;-82
2022/07/25 12:49:16;;;;;;;13.05;7.00;;;34.80;96.70;;;;;;5093679;28;20051;-83
2022/07/25 12:51:44;;;;;;;13.48;7.32;;;34.80;96.70;;;;;;5090276;28;20714;-83
2022/07/25 12:54:14;;;;;;;11.10;6.45;;;34.60;96.70;;;;;;5101853;28;20043;-83
2022/07/25 12:56:50;;;;;;;8.05;6.45;;;34.90;96.70;;;;;;5082214;28;20085;-82
2022/07/25 12:59:19;;;;;;;11.15;6.05;;;34.80;96.70;;;;;;5073208;28;20047;-83
2022/07/25 13:01:47;;;;;;;8.38;6.72;;;34.90;96.70;;;;;;5093754;27;20657;-83
2022/07/25 13:04:16;;;;;;;8.52;6.70;;;35.00;96.70;;;;;;5091220;27;20047;-82